Date,TemperatureHighF,TemperatureAvgF,TemperatureLowF,DewpointHighF,DewpointAvgF,DewpointLowF,HumidityHigh,HumidityAvg,HumidityLow,PressureMaxIn,PressureMinIn,WindSpeedMaxMPH,WindSpeedAvgMPH,GustSpeedMaxMPH,PrecipitationSumIn
2013-1-1,32.7,18.3,8.4,7.9,1.6,-4.7,61,49,32,26.13,25.96,4,1,6,0.00
2013-1-2,28.4,15.2,6.8,4.0,-2.3,-8.4,54,46,35,26.07,25.93,4,0,5,0.00
2013-1-3,33.3,18.4,8.4,7.0,1.5,-3.3,62,48,32,26.02,25.90,4,0,6,0.00
2013-1-4,35.8,20.4,10.0,9.6,2.0,-5.0,56,45,31,26.07,25.93,4,0,5,0.00
2013-1-5,30.6,24.6,16.5,21.4,10.2,2.0,72,54,41,25.96,25.84,3,0,6,0.00
2013-1-6,35.1,31.1,25.3,23.7,20.6,0.0,78,65,51,25.96,25.84,4,1,6,0.00
2013-1-7,40.6,33.4,28.6,27.0,22.1,18.7,73,63,44,25.99,25.93,4,1,6,0.00
2013-1-8,41.9,34.2,29.3,29.0,24.4,18.5,79,68,45,26.02,25.87,4,0,6,0.07
2013-1-9,39.7,32.4,23.7,24.2,17.8,5.8,72,55,43,25.87,25.60,8,2,10,0.04
2013-1-10,33.6,22.9,12.6,11.9,5.8,-1.2,64,48,35,25.75,25.63,7,2,10,0.00
2013-1-11,31.6,23.3,10.4,13.7,3.7,-8.3,54,43,28,25.87,25.72,6,2,10,0.00
2013-1-12,22.8,10.5,1.2,-0.1,-8.6,-16.7,45,41,35,25.93,25.87,4,0,5,0.00
2013-1-13,22.8,8.1,-1.8,-1.3,-10.7,-18.5,44,42,34,26.02,25.93,3,0,4,0.00
2013-1-14,28.4,12.6,2.1,2.0,-7.1,-15.9,46,41,32,26.13,26.02,5,1,6,0.00
2013-1-15,34.7,18.0,7.7,6.5,-1.9,-8.9,48,42,30,26.31,26.13,4,0,5,0.00
2013-1-16,37.4,19.1,6.8,8.4,-0.5,-9.7,52,43,29,26.31,26.22,4,0,6,0.04
2013-1-17,38.5,20.7,8.4,9.8,1.9,-5.7,53,45,29,26.22,26.10,4,0,5,0.00
2013-1-18,39.2,20.4,7.5,10.4,1.6,-6.9,52,45,30,26.13,26.05,3,0,4,0.00
2013-1-19,39.7,20.3,6.4,9.6,-0.1,-9.2,54,42,24,26.13,26.05,4,0,5,0.00
2013-1-20,39.0,19.5,5.5,9.2,-0.3,-10.0,54,43,24,26.10,26.05,4,0,5,0.00
2013-1-21,39.7,21.0,6.8,9.4,0.5,-8.4,54,42,26,26.07,25.96,4,0,5,0.00
2013-1-22,37.2,25.1,11.7,8.4,3.6,-2.6,54,40,30,25.96,25.81,3,0,5,0.00
2013-1-23,49.3,39.9,30.0,30.7,15.0,4.7,78,39,21,25.84,25.72,7,2,11,0.08
2013-1-24,46.8,38.3,31.1,33.8,28.6,23.2,80,69,46,25.96,25.87,3,0,6,0.00
2013-1-25,40.6,36.1,31.1,33.8,30.3,24.3,85,79,72,25.96,25.75,4,0,6,0.16
2013-1-26,41.7,34.9,27.3,32.0,19.4,8.5,86,55,29,25.75,25.69,5,1,8,0.04
2013-1-27,38.8,28.9,19.8,16.2,11.3,6.2,67,49,31,25.84,25.75,6,2,8,0.00
2013-1-28,36.3,32.5,28.9,17.5,15.4,13.0,58,49,40,25.93,25.78,6,2,9,0.00
2013-1-29,45.7,35.4,27.1,18.5,16.7,15.1,65,47,31,26.13,25.90,9,3,13,0.00
2013-1-30,50.5,34.4,25.9,26.5,18.3,14.5,75,54,27,26.16,26.10,4,0,5,0.00
2013-1-31,48.4,31.6,21.9,25.9,17.5,11.1,78,57,33,26.10,26.02,3,0,5,0.00
2013-2-1,48.6,32.9,21.6,20.1,15.8,10.0,70,51,29,26.05,25.99,4,0,5,0.00
2013-2-2,43.3,33.1,25.7,17.7,14.6,12.2,58,47,32,26.07,26.02,4,0,5,0.00
2013-2-3,52.0,34.6,21.6,20.9,16.2,10.4,70,49,27,26.02,25.93,4,0,5,0.00
2013-2-4,52.9,37.1,26.8,21.3,18.3,15.4,67,48,27,25.96,25.78,4,0,6,0.00
2013-2-5,48.2,36.1,28.9,21.2,17.2,13.2,62,48,27,25.84,25.72,6,2,10,0.00
2013-2-6,49.6,35.0,23.5,19.2,13.5,7.5,64,43,24,25.87,25.72,5,1,9,0.00
2013-2-7,40.6,32.8,21.9,24.2,14.7,8.2,71,48,31,25.72,25.66,6,1,10,0.12
2013-2-8,41.9,28.7,18.1,11.6,6.9,-0.8,60,42,18,25.81,25.69,8,2,11,0.00
2013-2-9,44.8,29.5,14.9,14.7,8.3,1.4,56,42,23,25.87,25.78,4,1,6,0.00
2013-2-10,46.6,32.5,21.9,15.6,10.9,5.6,69,43,20,25.93,25.87,7,2,11,0.00
2013-2-11,53.4,34.3,18.9,16.2,10.0,4.0,56,39,16,26.05,25.90,4,1,6,0.00
2013-2-12,52.0,34.7,22.8,17.7,13.5,9.1,65,44,19,26.13,26.05,4,1,6,0.00
2013-2-13,54.9,38.2,25.3,21.4,17.5,11.8,68,46,18,26.13,26.05,5,1,8,0.00
2013-2-14,54.7,37.6,25.9,22.0,17.2,12.9,72,47,20,26.19,26.10,4,1,8,0.00
2013-2-15,59.2,39.1,24.6,20.1,15.3,9.3,65,42,14,26.16,26.02,6,1,8,0.00
2013-2-16,58.1,38.2,23.5,21.4,12.7,6.1,63,39,14,26.05,25.84,9,2,12,0.00
2013-2-17,48.0,33.0,19.4,11.9,6.6,-2.1,56,35,16,25.90,25.78,4,1,7,0.00
2013-2-18,48.4,33.8,25.0,20.6,10.5,-0.2,60,41,16,25.78,25.51,8,1,10,0.00
2013-2-19,34.7,28.6,21.9,21.2,14.9,8.4,70,56,46,25.63,25.37,5,1,8,0.04
2013-2-20,41.5,28.7,13.5,14.9,9.1,0.3,60,45,31,25.78,25.63,5,1,8,0.08
2013-2-21,41.0,30.5,18.3,16.8,11.7,5.6,67,47,29,25.93,25.78,6,1,8,0.00
2013-2-22,50.0,35.3,26.2,28.2,18.7,13.0,72,53,27,25.93,25.72,10,2,15,0.11
2013-2-23,36.7,29.7,21.7,19.6,10.4,6.5,67,45,30,26.02,25.78,8,1,11,0.08
2013-2-24,45.5,30.2,18.3,13.7,9.6,4.1,63,44,21,26.05,25.93,4,1,7,0.00
2013-2-25,43.3,34.2,26.2,23.7,10.9,1.3,69,40,20,26.02,25.87,10,3,15,0.00
2013-2-26,45.3,30.7,18.7,12.5,7.6,0.0,58,40,18,26.05,25.96,4,1,7,0.00
2013-2-27,51.8,35.6,20.8,18.6,10.2,4.4,57,38,16,26.05,25.99,4,1,6,0.00
2013-2-28,51.8,42.2,35.1,29.4,25.3,19.5,73,52,37,26.22,26.05,6,1,8,0.00
2013-3-1,55.6,40.0,30.0,33.8,26.8,20.8,84,62,31,26.22,26.07,4,1,6,0.00
2013-3-2,58.1,42.1,30.6,30.4,21.7,12.9,77,49,19,26.07,25.87,7,1,10,0.00
2013-3-3,54.9,41.5,29.8,32.0,20.7,10.3,76,47,20,25.87,25.78,6,1,8,0.04
2013-3-4,58.1,39.8,23.7,22.1,12.9,6.0,50,35,17,25.84,25.72,6,2,10,0.00
2013-3-5,45.7,41.5,37.6,27.4,17.6,10.9,60,39,28,25.69,25.43,12,5,19,0.00
2013-3-6,42.1,35.1,29.1,26.0,17.5,8.7,72,50,26,25.69,25.37,10,4,18,0.08
2013-3-7,49.1,35.5,26.6,20.2,11.0,-1.0,67,40,16,25.72,25.66,8,1,11,0.00
2013-3-8,50.7,35.6,23.5,16.5,10.7,-0.6,68,39,14,25.84,25.66,5,2,9,0.00
2013-3-9,54.7,38.9,24.4,15.3,8.6,-1.2,56,33,13,26.13,25.84,5,1,7,0.00
2013-3-10,61.0,40.6,22.5,16.9,9.1,-0.2,56,32,12,26.16,26.05,3,1,7,0.00
2013-3-11,65.5,44.7,28.2,23.0,15.8,10.9,57,35,13,26.10,25.96,5,1,8,0.00
2013-3-12,67.3,47.2,29.5,25.9,16.6,3.4,63,35,11,25.99,25.90,5,1,8,0.00
2013-3-13,68.4,48.2,31.6,23.3,16.7,8.3,55,33,12,25.99,25.93,4,0,6,0.00
2013-3-14,68.7,49.0,37.4,25.6,17.5,8.5,58,33,12,25.96,25.90,5,1,11,0.00
2013-3-15,64.8,47.0,34.5,22.3,16.1,7.1,51,32,13,25.96,25.87,5,1,9,0.00
2013-3-16,58.3,40.3,28.0,27.6,16.7,7.3,66,41,14,25.93,25.78,10,3,17,0.00
2013-3-17,53.2,39.2,30.2,16.1,9.7,2.8,49,31,16,25.90,25.81,10,3,19,0.00
2013-3-18,58.6,39.4,21.4,15.6,8.5,3.6,52,31,12,25.90,25.81,4,1,7,0.00
2013-3-19,57.9,44.7,33.3,28.7,18.9,10.7,53,36,22,25.84,25.66,8,3,15,0.00
2013-3-20,54.0,43.3,32.2,32.0,22.0,8.0,58,43,29,25.84,25.60,12,6,18,0.04
2013-3-21,45.7,34.4,27.5,10.6,6.1,-1.3,42,32,17,25.93,25.84,5,2,13,0.00
2013-3-22,42.1,31.4,23.2,10.9,3.8,-0.8,48,33,18,25.96,25.90,7,2,11,0.00
2013-3-23,53.8,34.8,17.2,7.0,2.3,-1.1,45,28,13,25.96,25.87,6,1,10,0.00
2013-3-24,57.9,41.6,23.7,16.1,9.4,4.1,45,29,14,25.90,25.75,6,1,8,0.00
2013-3-25,64.4,46.8,30.7,23.0,15.2,7.1,52,32,13,25.78,25.60,9,1,11,0.00
2013-3-26,55.2,46.7,39.9,32.0,23.4,19.3,64,42,26,25.72,25.66,7,2,8,0.00
2013-3-27,60.8,46.5,34.9,33.8,25.5,13.6,73,47,16,25.75,25.66,7,2,10,0.00
2013-3-28,61.3,47.9,36.1,32.0,24.0,16.4,67,42,19,25.93,25.75,10,2,15,0.00
2013-3-29,68.9,49.4,32.4,27.6,19.0,8.6,63,35,12,25.96,25.90,6,1,9,0.00
2013-3-30,75.6,54.3,34.2,29.2,20.7,10.9,72,32,10,25.96,25.81,7,2,11,0.00
2013-3-31,57.0,48.6,41.7,35.6,26.3,20.8,69,42,29,25.84,25.75,10,2,12,0.20
2013-4-1,51.1,44.5,39.9,35.6,30.4,26.3,71,58,40,25.93,25.78,5,2,9,0.55
2013-4-2,58.1,45.8,35.2,35.6,28.9,25.6,77,54,31,25.99,25.90,6,1,8,0.00
2013-4-3,66.7,49.1,34.2,35.6,26.9,18.8,77,48,17,25.96,25.78,5,1,8,0.00
2013-4-4,61.2,50.6,43.3,32.0,26.8,21.9,56,40,26,25.78,25.69,9,4,17,0.00
2013-4-5,60.6,47.4,41.0,32.0,26.5,17.1,65,47,22,25.84,25.78,10,2,13,0.04
2013-4-6,57.2,45.7,41.5,32.0,25.6,12.8,67,48,20,25.84,25.75,10,4,17,0.08
2013-4-7,50.9,42.4,33.3,32.0,24.2,17.7,73,50,29,25.75,25.60,11,4,19,0.03
2013-4-8,48.4,38.0,28.8,25.6,13.8,9.8,73,38,24,25.96,25.63,9,2,13,0.04
2013-4-9,61.0,44.1,25.5,25.0,15.4,8.5,54,34,14,26.07,25.96,7,2,10,0.00
2013-4-10,63.1,47.0,34.5,29.7,24.6,17.6,65,43,25,26.07,25.96,9,2,15,0.00
2013-4-11,61.9,44.9,27.0,23.9,15.2,5.7,61,35,12,26.02,25.84,6,1,9,0.00
2013-4-12,68.9,48.8,29.5,22.7,15.0,7.9,48,30,12,25.87,25.72,8,2,10,0.00
2013-4-13,54.0,43.4,31.5,24.0,12.3,2.6,45,30,15,25.84,25.72,11,5,17,0.00
2013-4-14,52.7,36.1,23.5,15.5,7.4,1.0,52,33,15,25.84,25.63,6,1,10,0.00
2013-4-15,46.9,35.9,31.1,21.4,14.0,2.4,65,42,17,25.84,25.66,10,2,15,0.00
2013-4-16,45.9,36.0,26.8,21.8,12.1,7.5,52,37,28,26.07,25.84,7,2,13,0.00
2013-4-17,54.5,40.3,24.1,13.9,7.8,-0.8,52,29,13,26.16,26.10,6,2,12,0.00
2013-4-18,64.4,47.2,28.9,24.3,14.5,9.1,46,30,13,26.19,26.10,6,2,8,0.00
2013-4-19,59.7,47.3,37.4,28.9,22.1,15.6,61,39,19,26.13,26.05,10,3,17,0.00
2013-4-20,67.1,47.9,28.0,21.4,15.1,6.4,56,31,11,26.13,26.02,6,2,9,0.00
2013-4-21,69.3,49.9,31.1,25.1,17.7,10.5,55,32,12,26.07,26.05,8,2,10,0.00
2013-4-22,61.0,47.7,32.4,26.6,12.8,-1.3,63,29,12,26.16,26.05,9,3,15,0.00
2013-4-23,67.6,50.9,32.9,13.6,4.8,-4.8,20,15,11,26.16,25.93,9,3,17,0.00
2013-4-24,69.8,53.6,34.9,14.7,5.1,-4.8,20,14,11,26.07,25.96,10,3,17,0.00
2013-4-25,77.4,55.1,32.2,27.3,14.7,-1.4,40,23,10,26.10,25.96,5,1,12,0.00
2013-4-26,80.2,58.8,36.1,28.2,18.7,8.3,54,26,10,26.22,26.10,7,1,9,0.00
2013-4-27,80.4,60.4,39.4,26.9,18.0,11.1,43,22,10,26.22,26.16,7,1,15,0.00
2013-4-28,72.7,56.9,40.5,22.3,16.3,10.3,41,23,11,26.16,26.07,5,2,8,0.00
2013-4-29,64.2,50.7,38.5,27.5,18.8,8.3,45,30,14,26.10,26.02,5,2,10,0.00
2013-4-30,63.1,47.6,32.2,16.9,7.1,-2.2,44,22,11,26.22,26.02,7,2,11,0.00
2013-5-1,69.3,51.2,32.0,14.3,5.5,-3.9,31,16,11,26.40,26.25,9,4,13,0.00
2013-5-2,77.9,58.8,38.1,16.7,7.3,-4.2,19,13,10,26.40,26.22,7,2,13,0.00
2013-5-3,77.0,60.7,38.1,22.1,13.4,0.0,38,18,10,26.25,26.10,6,2,11,0.00
2013-5-4,71.8,58.7,45.3,15.9,9.9,3.4,20,15,11,26.16,25.90,10,4,17,0.00
2013-5-5,76.6,58.1,44.8,33.8,17.8,9.6,47,23,10,25.90,25.81,9,3,17,0.00
2013-5-6,76.3,55.2,40.8,41.0,29.1,13.8,67,42,10,25.99,25.87,8,1,12,0.00
2013-5-7,70.3,55.2,46.9,46.4,38.1,30.8,76,55,24,26.07,25.96,8,1,12,0.00
2013-5-8,72.3,55.4,43.0,44.6,36.6,28.5,75,53,22,26.19,26.07,6,1,11,0.00
2013-5-9,77.7,59.3,41.0,41.0,31.6,19.4,77,43,13,26.25,26.16,5,1,8,0.00
2013-5-10,84.7,65.9,46.6,37.4,26.8,14.7,55,28,8,26.31,26.22,5,1,8,0.00
2013-5-11,86.7,68.3,50.2,41.0,29.1,15.3,59,29,8,26.31,26.19,5,1,8,0.00
2013-5-12,86.0,68.5,50.9,41.0,26.9,16.1,51,26,8,26.25,26.13,7,2,11,0.00
2013-5-13,71.4,57.2,47.1,35.6,25.5,15.1,53,32,12,26.19,26.13,7,1,12,0.00
2013-5-14,78.3,59.3,40.5,32.0,20.7,10.9,59,27,10,26.19,26.07,6,1,10,0.00
2013-5-15,71.8,56.8,42.8,32.0,24.0,14.0,56,31,11,26.13,26.05,9,2,13,0.00
2013-5-16,61.9,51.6,44.6,35.6,27.6,22.6,59,41,25,26.10,25.96,5,1,8,0.00
2013-5-17,65.7,53.3,43.3,30.2,20.3,10.9,57,31,13,26.10,26.02,6,2,12,0.00
2013-5-18,60.8,52.4,45.0,24.0,21.1,13.6,40,30,17,26.28,26.19,7,2,11,0.00
2013-5-19,67.3,52.7,33.6,23.9,18.2,11.3,53,29,12,26.34,26.25,5,1,9,0.00
2013-5-20,75.4,59.2,38.5,24.2,17.0,10.1,47,22,10,26.28,26.05,4,1,8,0.00
2013-5-21,58.6,47.4,33.8,29.0,18.5,7.3,52,34,14,26.05,25.90,10,3,22,0.00
2013-5-22,55.0,40.5,27.7,17.5,11.1,4.6,47,32,15,26.07,25.99,7,2,11,0.00
2013-5-23,60.4,45.9,35.8,27.2,17.0,8.1,66,35,14,26.07,25.99,7,1,11,0.00
2013-5-24,65.8,50.6,36.7,22.3,16.2,0.0,45,28,13,26.07,26.02,6,2,10,0.00
2013-5-25,69.8,52.8,33.8,33.8,19.6,11.2,57,32,12,26.10,25.99,6,1,10,0.00
2013-5-26,63.9,53.0,45.7,32.0,23.9,14.2,58,35,16,26.13,26.05,11,2,13,0.00
2013-5-27,57.4,49.4,43.0,37.4,32.0,23.3,68,51,36,26.10,25.96,7,1,10,0.32
2013-5-28,65.7,54.5,43.3,35.6,26.2,14.8,70,39,15,26.05,25.90,7,2,12,0.04
2013-5-29,62.2,53.2,43.5,32.0,21.9,13.6,52,31,16,26.07,25.90,6,3,13,0.00
2013-5-30,69.6,51.8,33.6,26.5,17.2,8.6,58,30,12,26.22,26.07,5,1,17,0.00
2013-5-31,75.4,57.4,35.2,27.5,18.0,9.9,54,27,10,26.28,26.22,4,1,7,0.00
2013-6-1,82.8,63.5,43.3,29.5,20.8,0.0,48,23,9,26.25,26.07,7,1,11,0.00
2013-6-2,76.8,62.3,44.1,33.8,22.1,14.0,53,25,10,26.10,25.99,5,1,8,0.00
2013-6-3,81.7,65.1,47.5,30.1,22.2,14.0,47,23,9,26.13,26.07,4,1,8,0.00
2013-6-4,86.0,69.7,50.7,32.0,22.8,14.0,43,21,8,26.16,26.10,4,1,7,0.00
2013-6-5,90.7,72.7,53.1,32.0,21.8,14.0,36,18,7,26.22,26.13,4,1,6,0.00
2013-6-6,91.8,72.0,51.3,39.2,26.1,14.6,46,23,7,26.22,26.13,6,1,9,0.00
2013-6-7,89.8,72.3,53.8,42.8,29.9,16.3,54,26,7,26.28,26.19,4,1,8,0.00
2013-6-8,89.8,73.2,52.5,37.4,25.7,14.6,49,22,7,26.28,26.19,4,1,5,0.00
2013-6-9,93.4,75.1,57.2,37.4,25.4,14.6,38,19,6,26.25,26.10,4,1,6,0.00
2013-6-10,84.2,68.3,53.2,35.6,21.9,9.0,46,20,8,26.19,26.07,6,2,13,0.00
2013-6-11,73.2,59.9,48.9,29.2,19.1,8.5,38,22,11,26.31,26.19,5,2,12,0.00
2013-6-12,71.1,55.4,40.5,24.5,16.2,8.3,47,24,12,26.40,26.31,4,1,9,0.00
2013-6-13,64.0,52.0,36.9,24.0,16.6,8.1,48,27,14,26.55,26.40,5,1,11,0.00
2013-6-14,75.7,57.1,35.6,22.8,15.7,3.4,53,24,10,26.55,26.34,6,1,10,0.00
2013-6-15,85.1,63.8,41.5,27.0,17.7,6.6,38,20,8,26.43,26.31,5,1,8,0.00
2013-6-16,81.5,65.3,46.6,33.8,23.1,12.2,50,24,9,26.55,26.43,6,1,10,0.00
2013-6-17,79.2,63.5,45.7,33.8,23.1,13.4,50,25,10,26.52,26.40,6,2,11,0.00
2013-6-18,68.7,56.8,49.5,33.8,24.4,10.9,53,31,12,26.46,26.37,9,2,11,0.00
2013-6-19,44.6,43.2,41.9,25.6,25.2,24.9,51,49,46,26.58,26.58,0,0,2,0.00
2013-6-20,66.7,51.2,36.9,32.0,22.3,13.3,65,37,15,26.61,26.52,5,1,10,0.00
2013-6-21,73.6,55.8,36.3,29.5,20.4,10.9,58,30,11,26.64,26.58,4,1,8,0.00
2013-6-22,78.8,61.9,41.4,32.0,21.5,11.9,57,26,10,26.64,26.49,5,1,8,0.00
2013-6-23,70.7,61.3,55.0,41.0,32.7,24.1,49,35,22,26.46,26.31,6,1,10,0.00
2013-6-24,58.8,53.5,50.2,42.8,36.0,28.2,73,52,36,26.43,26.31,7,2,11,0.27
2013-6-25,61.5,55.3,50.5,46.4,39.0,32.0,72,55,40,26.55,26.40,4,2,10,0.04
2013-6-26,71.1,61.5,51.4,51.8,40.0,32.0,84,50,24,26.70,26.55,8,2,12,0.08
2013-6-27,88.2,70.2,49.6,44.6,33.2,16.5,70,32,8,26.81,26.70,5,1,8,0.00
2013-6-28,93.6,74.6,54.9,46.4,33.0,16.3,66,29,6,26.84,26.70,4,1,8,0.00
2013-6-29,91.0,75.4,58.1,46.4,31.4,15.9,58,25,7,26.75,26.67,7,1,11,0.00
2013-6-30,97.9,78.0,58.3,42.8,31.0,16.3,52,24,6,26.70,26.55,4,1,8,0.00
2013-7-1,91.4,81.2,71.2,37.4,24.9,16.1,29,14,7,26.72,26.67,3,0,5,0.00
2013-7-2,100.8,80.4,61.0,48.2,31.9,16.3,50,23,5,26.78,26.70,5,1,8,0.00
2013-7-3,98.4,80.6,64.2,44.6,30.7,16.3,47,20,6,26.78,26.67,5,1,8,0.00
2013-7-4,90.5,73.7,58.3,39.2,29.1,14.6,48,23,7,26.72,26.55,4,1,8,0.00
2013-7-5,85.8,72.2,53.8,35.6,24.0,15.0,46,19,8,26.61,26.49,4,1,6,0.00
2013-7-6,91.0,71.9,57.7,33.8,25.4,14.6,37,21,7,26.58,26.46,5,1,8,0.00
2013-7-7,91.2,74.3,54.7,39.2,26.3,16.1,46,21,7,26.64,26.52,6,1,8,0.00
2013-7-8,91.6,72.6,55.2,39.2,29.8,16.1,47,25,7,26.72,26.61,5,1,8,0.00
2013-7-9,93.4,74.1,54.3,37.4,24.2,0.0,48,20,6,26.81,26.72,6,1,12,0.00
2013-7-10,92.7,74.2,54.5,32.0,22.0,10.9,39,17,7,26.78,26.58,6,1,10,0.00
2013-7-11,66.9,65.9,64.4,33.8,32.2,30.1,33,28,26,26.64,26.64,0,0,0,0.00
2013-7-14,65.7,65.3,64.9,16.7,16.4,16.1,15,15,15,26.67,26.67,0,0,2,0.00
2013-7-15,91.8,71.9,53.2,37.4,22.8,14.0,41,19,7,26.70,26.52,7,1,11,0.00
2013-7-16,88.5,70.5,58.1,35.6,22.5,11.8,36,19,8,26.72,26.55,8,2,14,0.00
2013-7-17,88.5,69.9,49.3,29.0,21.2,14.0,39,19,8,26.84,26.72,5,1,8,0.00
2013-7-18,93.6,74.5,52.5,35.6,24.2,16.1,42,19,6,26.87,26.70,6,1,8,0.00
2013-7-19,97.0,78.5,57.4,37.4,24.6,0.0,39,17,6,26.78,26.64,4,1,6,0.00
2013-7-20,97.7,76.1,56.8,37.4,26.3,14.9,44,20,6,26.72,26.61,4,0,6,0.00
2013-7-21,98.8,78.6,55.8,37.4,24.6,14.7,45,18,5,26.70,26.58,5,1,8,0.00
2013-7-22,98.4,77.2,56.8,37.4,24.5,14.6,40,18,6,26.72,26.64,5,1,9,0.00
2013-7-23,96.4,75.1,58.3,39.2,25.3,14.0,37,20,6,26.78,26.70,4,0,6,0.00
2013-7-24,84.6,73.4,61.5,39.2,26.8,14.4,38,20,8,26.78,26.72,5,0,6,0.00
2013-7-25,98.6,79.7,60.8,39.2,26.7,16.1,41,18,5,26.81,26.70,5,0,8,0.00
2013-7-26,92.3,76.5,61.3,39.2,29.3,16.1,39,20,8,26.87,26.75,7,1,12,0.00
2013-7-27,92.5,73.4,57.0,41.0,28.3,13.3,50,24,7,26.84,26.64,4,1,6,0.00
2013-7-28,88.7,70.4,52.7,33.8,21.7,14.0,40,19,8,26.72,26.61,7,1,10,0.00
2013-7-29,89.1,69.1,50.2,33.8,22.9,14.0,44,22,8,26.75,26.64,5,1,8,0.00
2013-7-30,88.2,69.1,51.4,32.0,22.1,14.0,40,21,8,26.84,26.75,6,1,8,0.00
2013-7-31,86.7,70.6,58.6,37.4,25.9,14.6,38,22,8,26.84,26.70,6,1,9,0.00
2013-8-1,77.2,63.5,50.9,37.4,24.6,11.9,49,26,10,26.78,26.72,7,2,11,0.00
2013-8-2,80.8,62.6,42.4,32.0,22.4,13.7,52,27,9,26.84,26.72,5,1,7,0.00
2013-8-3,86.5,67.1,48.2,33.8,22.7,13.1,44,23,8,26.81,26.70,5,1,8,0.00
2013-8-4,90.3,70.8,50.4,35.6,23.7,14.6,42,21,7,26.81,26.67,6,1,8,0.00
2013-8-5,90.1,71.5,0.0,35.6,25.7,0.0,46,22,7,26.81,26.67,6,1,9,0.00
2013-8-6,91.9,72.4,53.6,37.4,25.4,16.1,46,22,7,26.81,26.70,5,1,8,0.00
2013-8-7,78.6,67.4,60.6,44.6,31.0,16.2,50,27,10,26.84,26.72,11,2,17,0.00
2013-8-8,78.8,61.8,49.5,39.2,29.1,18.3,57,33,13,26.78,26.70,8,1,11,0.00
2013-8-9,74.8,60.4,46.6,37.4,28.5,14.0,57,33,11,26.75,26.70,8,1,12,0.00
2013-8-10,76.8,62.4,49.1,41.0,30.3,14.0,66,35,10,26.84,26.72,5,1,8,0.00
2013-8-11,82.8,65.1,47.3,37.4,26.2,14.2,60,29,9,26.87,26.72,6,1,8,0.00
2013-8-12,86.0,66.4,48.9,37.4,27.2,14.7,50,28,8,26.84,26.75,6,1,8,0.00
2013-8-13,88.7,69.9,50.2,37.4,26.5,14.6,50,25,8,26.90,26.72,5,1,8,0.00
2013-8-14,89.6,71.7,53.2,39.2,26.6,14.0,51,24,7,26.84,26.72,6,1,9,0.00
2013-8-15,90.9,69.9,50.2,33.8,25.4,15.6,46,24,7,26.81,26.72,6,1,9,0.00
2013-8-16,90.1,70.7,53.8,41.0,28.6,16.1,52,26,7,26.84,26.75,7,1,10,0.00
2013-8-17,64.8,59.3,55.8,37.4,36.5,33.8,50,43,34,26.84,26.81,2,0,3,0.00
2013-8-18,75.0,71.8,67.8,32.0,23.4,15.8,26,17,11,26.84,26.81,3,0,6,0.00
2013-8-19,93.9,76.4,58.1,41.0,26.7,15.0,43,20,6,26.87,26.75,4,1,6,0.00
2013-8-20,90.5,72.7,54.7,39.2,26.9,16.1,48,23,7,26.87,26.72,4,0,6,0.00
2013-8-21,87.1,73.1,59.2,30.0,20.4,14.6,26,15,8,26.84,26.75,8,1,11,0.00
2013-8-22,80.4,63.7,51.8,41.0,33.9,14.7,58,36,11,26.87,26.75,10,1,13,0.00
2013-8-23,83.7,63.6,45.3,41.0,28.3,14.6,64,35,9,26.84,26.67,6,1,8,0.00
2013-8-24,82.4,64.2,49.8,39.2,31.4,14.9,58,34,10,26.75,26.70,6,1,8,0.00
2013-8-26,65.7,59.8,55.0,32.0,29.6,26.5,42,32,24,26.87,26.81,3,0,4,0.00
2013-8-27,84.4,62.5,45.5,37.4,24.1,8.3,56,29,8,26.87,26.70,6,1,10,0.00
2013-8-28,84.0,65.2,46.6,32.0,20.6,11.9,46,22,9,26.87,26.75,7,2,11,0.00
2013-8-29,83.3,69.8,55.0,33.8,23.1,14.6,37,20,9,27.02,26.84,8,2,13,0.00
2013-8-30,85.6,67.8,49.8,41.0,27.7,14.0,54,28,8,27.11,26.93,5,1,8,0.00
2013-8-31,90.0,68.6,49.8,39.2,23.8,10.5,47,24,7,27.08,26.90,5,1,8,0.00
2013-9-1,87.8,68.0,48.6,28.8,20.2,0.0,38,19,8,27.05,17.72,7,2,13,0.00
2013-9-2,82.9,67.3,52.0,37.4,25.0,12.2,50,24,9,17.72,17.72,9,2,13,0.00
2013-9-3,63.3,57.3,54.0,29.0,27.2,24.6,37,32,23,17.72,17.72,3,0,4,0.00
2013-9-4,82.9,63.2,44.8,33.8,24.5,0.0,51,28,9,17.72,17.72,7,1,13,0.00
2013-9-5,72.1,59.2,48.2,37.4,28.5,15.7,57,34,14,17.72,17.72,6,1,10,0.00
2013-9-6,76.5,58.8,41.0,33.8,25.7,14.0,55,33,10,17.72,17.72,5,0,6,0.00
2013-9-7,84.9,65.8,49.5,41.0,26.4,14.0,64,29,8,17.72,17.72,4,0,6,0.00
2013-9-8,84.2,68.1,52.0,37.4,24.9,12.9,47,24,8,17.72,17.72,8,1,10,0.00
2013-9-9,85.8,68.4,49.3,33.8,20.4,10.9,42,19,8,17.72,17.72,5,0,8,0.00
2013-9-10,89.1,69.9,50.5,33.8,22.3,11.9,38,20,8,17.72,17.72,5,1,8,0.00
2013-9-11,90.5,70.8,52.9,35.6,22.7,12.2,40,20,7,17.72,17.72,4,0,6,0.00
2013-9-12,89.4,72.3,57.2,33.8,23.5,16.1,35,17,8,17.72,17.72,4,0,5,0.00
2013-9-13,89.8,73.0,57.2,41.0,25.3,0.0,46,21,7,17.72,17.72,4,0,7,0.00
2013-9-14,90.0,69.5,51.6,33.8,21.2,13.3,37,19,7,17.72,17.72,4,0,6,0.00
2013-9-15,83.3,65.9,49.3,35.6,23.4,11.9,48,24,9,17.72,17.72,10,2,15,0.00
2013-9-16,78.8,62.1,47.1,35.6,25.8,14.0,55,30,10,17.72,17.72,6,1,9,0.00
2013-9-17,61.0,54.5,43.5,39.2,29.4,22.2,58,39,26,17.72,17.72,4,1,8,0.00
2013-9-18,68.7,50.5,36.1,32.0,23.2,10.9,66,39,12,17.72,17.72,6,1,8,0.00
2013-9-19,78.8,55.7,35.6,29.7,18.9,8.3,58,30,10,17.72,17.72,4,0,6,0.00
2013-9-20,77.0,56.1,37.4,39.2,20.2,11.3,67,29,10,17.72,17.72,10,2,13,0.08
2013-9-21,57.6,49.7,42.1,42.8,34.9,0.0,73,58,36,17.72,17.72,6,1,8,0.08
2013-9-22,58.1,49.0,38.1,39.2,30.4,21.9,77,52,26,17.72,17.72,6,1,11,0.00
2013-9-23,71.8,57.5,46.2,42.8,31.0,13.0,71,41,12,17.72,17.72,5,1,10,0.00
2013-9-24,57.4,49.6,41.4,35.6,27.9,20.8,60,44,26,17.72,17.72,6,1,10,0.00
2013-9-25,51.3,42.5,36.7,26.2,21.9,17.2,57,45,29,17.72,17.72,6,1,11,0.00
2013-9-26,57.6,42.8,29.8,26.3,18.0,10.6,66,40,17,17.72,17.72,4,1,9,0.00
2013-9-27,63.7,46.7,29.5,25.3,16.3,6.5,61,35,13,17.72,17.72,6,1,8,0.00
2013-9-28,66.7,52.3,40.6,25.7,19.1,13.3,45,29,15,17.72,17.72,9,2,13,0.00
2013-9-29,57.2,54.8,50.2,42.8,33.1,21.2,69,45,25,17.72,17.72,12,5,17,0.12
2013-9-30,59.7,52.2,39.4,41.0,27.0,17.1,66,40,22,17.72,17.72,10,2,14,0.03
2013-10-1,61.3,46.2,36.7,26.8,19.2,8.3,58,37,14,17.72,17.72,8,1,13,0.00
2013-10-2,59.0,43.2,30.4,21.1,15.8,4.2,59,37,15,17.72,17.72,6,1,12,0.00
2013-10-3,57.7,44.0,30.4,20.4,12.7,2.8,55,32,14,17.72,17.72,6,2,10,0.00
2013-10-4,63.5,47.0,31.1,19.2,11.8,5.7,50,26,12,17.72,17.72,6,1,9,0.00
2013-10-5,70.5,48.8,29.3,27.1,15.1,7.0,54,30,12,17.72,17.72,4,0,6,0.00
2013-10-6,74.3,51.2,31.8,28.9,18.4,6.2,62,33,11,25.90,17.72,4,0,6,0.00
2013-10-7,64.4,46.9,36.5,21.7,16.2,8.3,50,32,13,25.87,25.81,6,1,8,0.00
2013-10-8,57.9,41.8,27.9,23.0,16.6,8.0,60,39,14,25.87,25.66,4,1,8,0.00
2013-10-9,53.6,42.6,34.9,18.7,13.7,9.4,42,32,18,25.72,25.63,8,2,12,0.00
2013-10-10,64.9,46.6,34.9,23.9,16.8,7.5,52,34,11,25.81,25.66,8,1,11,0.00
2013-10-11,60.1,42.5,28.2,25.4,17.7,13.2,57,40,17,25.87,25.81,4,0,5,0.00
2013-10-12,56.7,34.6,27.1,22.6,16.1,11.7,55,48,25,25.81,25.75,4,0,4,0.00
2013-10-13,57.4,49.1,38.7,18.8,14.1,9.6,39,26,17,25.99,25.90,5,1,8,0.00
2013-10-14,60.8,44.5,29.1,23.2,13.0,4.0,58,32,14,26.05,25.99,4,0,6,0.00
2013-10-15,63.1,45.3,31.1,20.4,13.7,6.2,56,31,13,26.05,25.93,8,1,10,0.00
2013-10-16,66.6,44.6,27.5,21.7,11.8,2.2,59,31,12,25.93,25.87,6,0,8,0.00
2013-10-17,68.2,47.6,29.7,22.7,14.3,8.7,49,30,12,25.96,25.90,4,0,6,0.00
2013-10-18,69.8,48.0,31.1,21.9,15.8,7.0,50,32,12,25.99,25.93,4,0,5,0.00
2013-10-19,72.0,48.3,28.8,24.0,15.6,8.3,53,32,11,25.99,25.90,4,0,5,0.00
2013-10-20,71.6,48.7,30.2,26.4,15.4,0.0,57,31,11,25.96,25.87,3,0,5,0.00
2013-10-21,73.2,52.1,34.0,24.0,17.4,8.3,46,29,11,25.96,25.84,4,0,5,0.00
2013-10-22,72.3,51.1,33.4,25.8,17.3,8.3,54,31,11,25.93,25.84,3,0,5,0.00
2013-10-23,72.3,49.5,30.9,25.3,16.7,7.0,52,32,11,25.90,25.78,4,0,5,0.00
2013-10-24,72.0,49.4,31.3,23.5,15.2,6.8,50,30,11,25.90,25.84,4,0,5,0.00
2013-10-25,70.5,47.3,30.0,24.5,15.9,8.3,54,33,12,26.02,25.90,4,0,6,0.00
2013-10-26,71.2,46.5,28.4,22.9,12.4,2.4,49,29,11,26.05,25.90,4,0,4,0.00
2013-10-27,61.2,40.7,28.9,22.3,14.0,4.3,47,35,12,25.90,25.48,11,2,15,0.00
2013-10-28,41.7,38.2,34.9,25.6,17.0,10.9,62,43,34,25.63,25.43,7,2,9,0.00
2013-10-29,53.2,36.8,25.7,14.9,10.1,5.5,52,35,16,25.81,25.63,5,1,6,0.00
2013-10-30,32.9,30.6,29.1,15.1,12.8,11.1,52,47,46,25.81,25.81,0,0,0,0.00
2013-11-2,35.6,35.2,34.5,14.6,13.6,12.8,42,41,40,25.87,25.84,4,1,5,0.00
2013-11-3,47.3,33.7,22.8,20.1,12.0,4.4,63,43,20,25.87,25.84,6,1,9,0.00
2013-11-5,45.1,43.4,40.1,32.0,30.3,28.6,64,59,55,26.05,25.99,0,0,3,0.00
2013-11-6,61.3,47.5,36.5,35.6,27.9,21.8,76,50,24,26.07,25.96,4,0,6,0.00
2013-11-7,57.6,48.9,40.5,33.8,26.0,19.7,60,42,26,25.96,25.81,11,3,17,0.00
2013-11-8,56.8,39.8,28.2,27.4,15.0,3.4,75,42,12,25.90,25.81,4,0,6,0.00
2013-11-9,61.7,39.3,23.9,23.0,13.3,7.6,53,38,14,25.87,25.81,4,0,5,0.00
2013-11-10,63.7,43.4,28.0,30.2,14.0,-0.8,68,36,13,25.93,25.84,5,1,8,0.00
2013-11-11,65.8,47.5,34.5,27.0,13.0,0.6,65,30,11,25.96,25.87,6,1,8,0.00
2013-11-12,64.9,53.8,48.9,28.0,12.4,2.0,44,21,13,26.10,25.96,8,2,10,0.00
2013-11-13,60.6,48.0,0.0,35.6,21.3,0.0,71,38,14,26.13,25.99,5,1,8,0.00
2013-11-14,57.0,37.5,24.4,18.6,10.3,2.2,51,35,12,25.99,25.75,8,1,12,0.00
2013-11-15,48.6,35.1,21.2,16.8,10.7,5.8,54,37,24,25.75,25.51,7,2,10,0.00
2013-11-16,47.3,38.1,28.6,27.3,17.4,9.0,67,44,28,25.69,25.45,11,5,15,0.00
2013-11-17,52.0,34.0,21.9,20.7,13.5,8.2,59,44,23,25.81,25.69,5,0,6,0.00
2013-11-18,47.1,37.0,27.1,31.3,18.8,10.3,67,48,37,25.81,25.72,5,1,7,0.04
2013-11-19,51.1,43.8,38.1,35.6,27.8,24.0,74,54,39,25.72,25.63,5,2,8,0.04
2013-11-20,44.1,38.8,27.5,37.4,20.6,-2.9,76,51,24,25.87,25.63,10,2,14,0.08
2013-11-21,43.0,29.5,18.5,0.6,-6.5,-14.4,31,21,15,26.16,25.87,10,2,13,0.00
2013-11-22,52.2,32.4,19.6,5.0,-0.5,-10.2,39,26,13,26.16,26.05,7,2,10,0.00
2013-11-23,55.0,38.1,26.6,5.0,1.9,-2.9,32,23,13,25.96,25.93,5,2,8,0.00
2013-11-24,52.3,32.3,16.7,9.4,2.2,-2.7,46,30,13,26.05,25.93,4,0,5,0.00
2013-11-25,52.9,32.2,17.6,12.9,3.1,-4.4,50,32,13,26.07,26.02,3,0,5,0.00
2013-11-26,52.3,33.8,21.7,12.9,6.7,3.1,48,34,16,26.02,25.87,3,0,4,0.00
2013-11-27,48.4,32.4,27.0,16.4,13.0,7.0,54,45,21,25.87,25.78,4,0,6,0.00
2013-11-30,33.6,32.4,31.1,19.3,17.3,15.7,58,53,51,26.10,26.07,2,0,3,0.00
2013-12-1,57.6,40.4,30.6,26.9,21.4,16.4,67,49,26,26.10,25.90,9,2,13,0.00
2013-12-2,45.1,40.3,29.3,32.0,20.7,7.6,61,46,37,25.90,25.63,12,5,15,0.16
2013-12-3,34.3,24.9,13.8,7.9,-0.4,-12.4,53,34,20,25.78,25.66,9,2,14,0.00
2013-12-4,28.0,15.8,7.0,-1.1,-9.6,-16.8,40,31,23,25.84,25.78,6,1,8,0.00
2013-12-5,30.2,14.7,1.8,-1.9,-11.2,-20.3,38,31,20,25.84,25.72,4,0,6,0.00
2013-12-6,29.7,22.4,12.0,13.0,5.3,-9.0,57,48,38,25.75,25.51,5,1,8,0.00
2013-12-7,23.4,9.9,-5.1,10.4,-8.4,-25.4,57,43,34,25.90,25.48,6,2,8,0.00
2013-12-8,14.5,-0.2,-11.6,0.0,-21.1,-31.2,36,35,35,26.10,25.90,4,0,4,0.00
2013-12-9,19.0,3.5,-8.9,-4.4,-18.1,-29.3,37,35,34,26.19,26.10,4,0,5,0.00
2013-12-10,26.2,11.5,0.1,2.0,-9.8,-20.7,45,37,34,26.13,26.02,3,0,4,0.00
2013-12-11,15.3,12.6,11.1,-1.4,-3.1,-4.4,49,49,47,26.02,25.99,3,0,4,0.00
2013-12-12,34.3,19.8,0.0,11.9,1.6,-8.8,51,45,33,26.02,25.90,7,0,8,0.00
2013-12-13,42.8,30.5,18.7,19.5,14.0,5.2,63,51,37,26.16,25.96,3,0,4,0.08
2013-12-14,39.2,26.0,17.6,16.7,11.6,5.2,67,55,39,26.22,26.13,4,0,5,0.00
2013-12-15,40.6,24.1,12.7,17.1,8.6,-0.8,63,52,37,26.19,26.13,4,0,5,0.00
2013-12-16,41.5,25.4,14.4,14.4,7.5,0.8,66,48,29,26.19,26.07,4,0,5,0.00
2013-12-17,44.8,27.4,16.9,15.5,9.1,3.5,64,47,28,26.07,25.90,3,0,4,0.04
2013-12-18,40.5,28.2,17.4,16.5,10.8,3.6,62,49,35,25.90,25.63,4,0,6,0.00
2013-12-19,35.1,27.0,14.7,15.6,0.9,-8.7,50,33,17,25.84,25.66,10,2,15,0.00
2013-12-20,38.7,26.7,12.9,30.1,6.2,-6.1,75,43,25,25.84,25.72,8,1,12,0.00
2013-12-21,49.6,39.0,26.8,26.1,20.1,14.4,66,48,28,25.96,25.75,6,1,7,0.00
2013-12-22,52.2,34.5,25.5,25.3,18.4,13.4,70,53,29,26.13,25.96,5,0,6,0.00
2013-12-23,46.0,33.8,24.4,25.8,20.2,12.3,79,59,39,26.16,26.10,3,0,4,0.00
2013-12-24,39.4,30.7,23.2,26.7,20.2,13.6,86,65,50,26.22,26.13,4,0,6,0.00
2013-12-25,42.4,28.4,21.4,21.1,14.9,8.4,73,58,31,26.22,26.10,3,0,4,0.00
2013-12-26,47.8,28.6,16.2,18.5,10.4,2.9,62,48,27,26.16,26.05,3,0,4,0.00
2013-12-27,36.5,26.2,18.5,16.4,10.5,0.0,61,52,40,26.05,25.93,5,0,7,0.00
2013-12-28,46.8,28.8,16.9,15.0,6.1,-2.5,67,41,17,26.10,25.99,5,1,6,0.00
2013-12-29,42.6,27.9,16.2,8.4,3.1,-1.1,48,36,18,26.05,26.02,4,0,4,0.00
2013-12-30,42.8,29.9,19.8,10.8,5.9,2.1,49,37,20,26.05,25.96,3,0,5,0.00
2013-12-31,53.2,36.3,27.3,13.7,9.1,-0.8,53,35,13,26.05,25.99,3,0,4,0.00
2014-1-1,49.3,32.1,21.0,13.6,8.1,4.0,57,39,16,26.02,25.99,3,0,5,0.00
2014-1-2,50.9,33.4,21.2,16.6,11.2,7.2,57,41,19,26.05,25.90,3,0,4,0.00